sensor_id;sensor_type;location;lat;lon;timestamp;P1;durP1;ratioP1;P2;durP2;ratioP2
9094;SDS011;4583;49.796;9.902;2023-06-04T00:09:55;2.40;;;1.60;;
9094;SDS011;4583;49.796;9.902;2023-06-04T00:19:57;4.27;;;1.57;;
9094;SDS011;4583;49.796;9.902;2023-06-04T00:29:59;3.50;;;1.60;;
9094;SDS011;4583;49.796;9.902;2023-06-04T00:40:00;6.03;;;1.70;;
9094;SDS011;4583;49.796;9.902;2023-06-04T00:50:02;3.83;;;2.07;;
9094;SDS011;4583;49.796;9.902;2023-06-04T01:00:05;2.83;;;2.00;;
9094;SDS011;4583;49.796;9.902;2023-06-04T01:10:08;3.63;;;1.93;;
9094;SDS011;4583;49.796;9.902;2023-06-04T01:30:39;7.67;;;2.67;;
9094;SDS011;4583;49.796;9.902;2023-06-04T01:40:47;2.23;;;1.80;;
9094;SDS011;4583;49.796;9.902;2023-06-04T01:50:49;5.20;;;1.90;;
9094;SDS011;4583;49.796;9.902;2023-06-04T02:00:50;10.20;;;2.83;;
9094;SDS011;4583;49.796;9.902;2023-06-04T02:10:54;5.80;;;2.33;;
9094;SDS011;4583;49.796;9.902;2023-06-04T02:20:56;13.43;;;5.10;;
9094;SDS011;4583;49.796;9.902;2023-06-04T02:30:59;9.47;;;3.30;;
9094;SDS011;4583;49.796;9.902;2023-06-04T02:41:00;6.53;;;2.97;;
9094;SDS011;4583;49.796;9.902;2023-06-04T02:51:02;4.07;;;1.90;;
9094;SDS011;4583;49.796;9.902;2023-06-04T03:01:04;1.97;;;1.57;;
9094;SDS011;4583;49.796;9.902;2023-06-04T03:11:06;2.70;;;1.80;;
9094;SDS011;4583;49.796;9.902;2023-06-04T03:21:08;4.47;;;2.00;;
9094;SDS011;4583;49.796;9.902;2023-06-04T03:31:12;2.90;;;1.90;;
9094;SDS011;4583;49.796;9.902;2023-06-04T03:41:14;4.03;;;1.80;;
9094;SDS011;4583;49.796;9.902;2023-06-04T03:51:16;3.83;;;1.70;;
9094;SDS011;4583;49.796;9.902;2023-06-04T04:01:18;2.43;;;1.60;;
9094;SDS011;4583;49.796;9.902;2023-06-04T04:11:20;2.13;;;1.50;;
9094;SDS011;4583;49.796;9.902;2023-06-04T04:21:21;3.07;;;1.70;;
9094;SDS011;4583;49.796;9.902;2023-06-04T04:31:24;3.60;;;1.63;;
9094;SDS011;4583;49.796;9.902;2023-06-04T04:41:27;2.97;;;1.80;;
9094;SDS011;4583;49.796;9.902;2023-06-04T04:51:28;2.87;;;1.80;;
9094;SDS011;4583;49.796;9.902;2023-06-04T05:01:30;2.70;;;1.67;;
9094;SDS011;4583;49.796;9.902;2023-06-04T05:11:32;2.40;;;1.60;;
9094;SDS011;4583;49.796;9.902;2023-06-04T05:21:34;3.87;;;1.60;;
9094;SDS011;4583;49.796;9.902;2023-06-04T05:31:38;2.13;;;1.70;;
9094;SDS011;4583;49.796;9.902;2023-06-04T05:41:41;4.63;;;1.70;;
9094;SDS011;4583;49.796;9.902;2023-06-04T05:51:43;3.07;;;1.90;;
9094;SDS011;4583;49.796;9.902;2023-06-04T06:01:45;4.47;;;1.70;;
9094;SDS011;4583;49.796;9.902;2023-06-04T06:11:48;3.17;;;1.67;;
9094;SDS011;4583;49.796;9.902;2023-06-04T06:21:50;7.10;;;1.70;;
9094;SDS011;4583;49.796;9.902;2023-06-04T06:31:52;2.53;;;1.63;;
9094;SDS011;4583;49.796;9.902;2023-06-04T06:41:54;3.07;;;1.83;;
9094;SDS011;4583;49.796;9.902;2023-06-04T06:51:56;2.50;;;1.47;;
9094;SDS011;4583;49.796;9.902;2023-06-04T07:01:57;2.70;;;1.70;;
9094;SDS011;4583;49.796;9.902;2023-06-04T07:11:59;4.70;;;1.80;;
9094;SDS011;4583;49.796;9.902;2023-06-04T07:22:01;4.10;;;1.60;;
9094;SDS011;4583;49.796;9.902;2023-06-04T07:32:03;3.17;;;1.70;;
9094;SDS011;4583;49.796;9.902;2023-06-04T07:42:05;2.20;;;1.67;;
9094;SDS011;4583;49.796;9.902;2023-06-04T07:52:08;8.80;;;2.27;;
9094;SDS011;4583;49.796;9.902;2023-06-04T08:02:11;2.10;;;1.60;;
9094;SDS011;4583;49.796;9.902;2023-06-04T08:12:12;6.37;;;1.90;;
9094;SDS011;4583;49.796;9.902;2023-06-04T08:22:14;3.10;;;1.63;;
9094;SDS011;4583;49.796;9.902;2023-06-04T08:32:16;4.50;;;1.80;;
9094;SDS011;4583;49.796;9.902;2023-06-04T08:42:21;4.20;;;1.60;;
9094;SDS011;4583;49.796;9.902;2023-06-04T08:52:28;1.93;;;1.60;;
9094;SDS011;4583;49.796;9.902;2023-06-04T09:02:29;2.43;;;1.70;;
9094;SDS011;4583;49.796;9.902;2023-06-04T09:12:31;2.63;;;1.70;;
9094;SDS011;4583;49.796;9.902;2023-06-04T09:22:37;5.30;;;1.70;;
9094;SDS011;4583;49.796;9.902;2023-06-04T09:32:39;1.70;;;1.57;;
9094;SDS011;4583;49.796;9.902;2023-06-04T09:42:41;3.47;;;1.70;;
9094;SDS011;4583;49.796;9.902;2023-06-04T09:52:43;4.13;;;1.90;;
9094;SDS011;4583;49.796;9.902;2023-06-04T10:02:46;5.33;;;1.60;;
9094;SDS011;4583;49.796;9.902;2023-06-04T10:12:50;2.63;;;1.40;;
9094;SDS011;4583;49.796;9.902;2023-06-04T10:22:55;3.97;;;1.60;;
9094;SDS011;4583;49.796;9.902;2023-06-04T10:32:59;3.30;;;1.60;;
9094;SDS011;4583;49.796;9.902;2023-06-04T10:43:07;3.00;;;1.60;;
9094;SDS011;4583;49.796;9.902;2023-06-04T10:53:10;4.70;;;1.50;;
9094;SDS011;4583;49.796;9.902;2023-06-04T11:03:12;5.10;;;1.70;;
9094;SDS011;4583;49.796;9.902;2023-06-04T11:13:14;3.10;;;1.80;;
9094;SDS011;4583;49.796;9.902;2023-06-04T11:23:16;5.57;;;1.93;;
9094;SDS011;4583;49.796;9.902;2023-06-04T11:33:19;9.67;;;1.67;;
9094;SDS011;4583;49.796;9.902;2023-06-04T11:43:20;2.00;;;1.50;;
9094;SDS011;4583;49.796;9.902;2023-06-04T11:53:24;2.17;;;1.60;;
9094;SDS011;4583;49.796;9.902;2023-06-04T12:03:35;2.60;;;1.40;;
9094;SDS011;4583;49.796;9.902;2023-06-04T12:13:39;3.70;;;1.50;;
9094;SDS011;4583;49.796;9.902;2023-06-04T12:23:41;4.33;;;1.90;;
9094;SDS011;4583;49.796;9.902;2023-06-04T12:33:42;3.13;;;1.80;;
9094;SDS011;4583;49.796;9.902;2023-06-04T12:43:44;2.90;;;1.70;;
9094;SDS011;4583;49.796;9.902;2023-06-04T12:53:46;5.50;;;1.83;;
9094;SDS011;4583;49.796;9.902;2023-06-04T13:03:49;1.73;;;1.50;;
9094;SDS011;4583;49.796;9.902;2023-06-04T13:13:50;2.60;;;1.53;;
9094;SDS011;4583;49.796;9.902;2023-06-04T13:23:52;3.53;;;1.70;;
9094;SDS011;4583;49.796;9.902;2023-06-04T13:33:54;2.87;;;1.50;;
9094;SDS011;4583;49.796;9.902;2023-06-04T13:43:56;3.47;;;1.80;;
9094;SDS011;4583;49.796;9.902;2023-06-04T13:53:57;3.93;;;1.83;;
9094;SDS011;4583;49.796;9.902;2023-06-04T14:04:00;3.27;;;1.60;;
9094;SDS011;4583;49.796;9.902;2023-06-04T14:14:02;5.73;;;1.70;;
9094;SDS011;4583;49.796;9.902;2023-06-04T14:24:03;4.30;;;1.67;;
9094;SDS011;4583;49.796;9.902;2023-06-04T14:34:05;2.10;;;1.70;;
9094;SDS011;4583;49.796;9.902;2023-06-04T14:44:10;2.05;;;1.77;;
9094;SDS011;4583;49.796;9.902;2023-06-04T14:54:12;2.42;;;1.60;;
9094;SDS011;4583;49.796;9.902;2023-06-04T15:04:13;3.13;;;1.90;;
9094;SDS011;4583;49.796;9.902;2023-06-04T15:14:15;3.17;;;1.88;;
9094;SDS011;4583;49.796;9.902;2023-06-04T15:24:17;3.42;;;1.50;;
9094;SDS011;4583;49.796;9.902;2023-06-04T15:34:19;3.90;;;1.70;;
9094;SDS011;4583;49.796;9.902;2023-06-04T15:44:20;3.33;;;1.85;;
9094;SDS011;4583;49.796;9.902;2023-06-04T15:54:24;4.75;;;1.73;;
9094;SDS011;4583;49.796;9.902;2023-06-04T16:04:45;4.40;;;1.95;;
9094;SDS011;4583;49.796;9.902;2023-06-04T16:14:46;1.98;;;1.70;;
9094;SDS011;4583;49.796;9.902;2023-06-04T16:24:48;4.10;;;1.85;;
9094;SDS011;4583;49.796;9.902;2023-06-04T16:34:50;2.22;;;1.80;;
9094;SDS011;4583;49.796;9.902;2023-06-04T16:44:51;3.20;;;1.70;;
9094;SDS011;4583;49.796;9.902;2023-06-04T16:54:53;1.80;;;1.70;;
9094;SDS011;4583;49.796;9.902;2023-06-04T17:04:55;3.67;;;1.88;;
9094;SDS011;4583;49.796;9.902;2023-06-04T17:14:58;1.98;;;1.60;;
9094;SDS011;4583;49.796;9.902;2023-06-04T17:24:59;4.80;;;1.85;;
9094;SDS011;4583;49.796;9.902;2023-06-04T17:35:01;5.75;;;1.80;;
9094;SDS011;4583;49.796;9.902;2023-06-04T17:45:03;1.92;;;1.65;;
9094;SDS011;4583;49.796;9.902;2023-06-04T17:55:10;1.70;;;1.60;;
9094;SDS011;4583;49.796;9.902;2023-06-04T18:05:12;2.00;;;1.60;;
9094;SDS011;4583;49.796;9.902;2023-06-04T18:15:14;2.72;;;2.05;;
9094;SDS011;4583;49.796;9.902;2023-06-04T18:25:16;2.53;;;2.20;;
9094;SDS011;4583;49.796;9.902;2023-06-04T18:35:17;2.83;;;1.90;;
9094;SDS011;4583;49.796;9.902;2023-06-04T18:45:19;5.60;;;2.00;;
9094;SDS011;4583;49.796;9.902;2023-06-04T18:55:21;3.63;;;2.30;;
9094;SDS011;4583;49.796;9.902;2023-06-04T19:05:23;6.10;;;2.40;;
9094;SDS011;4583;49.796;9.902;2023-06-04T19:15:24;3.93;;;2.73;;
9094;SDS011;4583;49.796;9.902;2023-06-04T19:25:26;6.57;;;2.87;;
9094;SDS011;4583;49.796;9.902;2023-06-04T19:35:28;3.40;;;2.60;;
9094;SDS011;4583;49.796;9.902;2023-06-04T19:45:29;5.50;;;3.17;;
9094;SDS011;4583;49.796;9.902;2023-06-04T19:55:31;4.87;;;2.77;;
9094;SDS011;4583;49.796;9.902;2023-06-04T20:05:33;3.80;;;2.40;;
9094;SDS011;4583;49.796;9.902;2023-06-04T20:15:34;2.43;;;2.07;;
9094;SDS011;4583;49.796;9.902;2023-06-04T20:25:36;3.67;;;2.17;;
9094;SDS011;4583;49.796;9.902;2023-06-04T20:35:38;3.20;;;2.17;;
9094;SDS011;4583;49.796;9.902;2023-06-04T20:45:39;3.63;;;2.00;;
9094;SDS011;4583;49.796;9.902;2023-06-04T20:55:41;2.67;;;1.73;;
9094;SDS011;4583;49.796;9.902;2023-06-04T21:05:43;7.10;;;2.00;;
9094;SDS011;4583;49.796;9.902;2023-06-04T21:15:45;5.47;;;2.30;;
9094;SDS011;4583;49.796;9.902;2023-06-04T21:25:47;2.93;;;2.10;;
9094;SDS011;4583;49.796;9.902;2023-06-04T21:35:50;2.90;;;2.00;;
9094;SDS011;4583;49.796;9.902;2023-06-04T21:45:52;2.90;;;2.00;;
9094;SDS011;4583;49.796;9.902;2023-06-04T21:55:53;4.30;;;1.90;;
9094;SDS011;4583;49.796;9.902;2023-06-04T22:05:55;4.27;;;2.17;;
9094;SDS011;4583;49.796;9.902;2023-06-04T22:15:57;2.53;;;1.73;;
9094;SDS011;4583;49.796;9.902;2023-06-04T22:25:59;4.60;;;1.90;;
9094;SDS011;4583;49.796;9.902;2023-06-04T22:36:00;3.40;;;1.77;;
9094;SDS011;4583;49.796;9.902;2023-06-04T22:46:03;2.50;;;1.83;;
9094;SDS011;4583;49.796;9.902;2023-06-04T22:56:04;3.70;;;1.90;;
9094;SDS011;4583;49.796;9.902;2023-06-04T23:06:08;3.43;;;1.90;;
9094;SDS011;4583;49.796;9.902;2023-06-04T23:16:09;6.23;;;1.70;;
9094;SDS011;4583;49.796;9.902;2023-06-04T23:26:11;2.37;;;1.70;;
9094;SDS011;4583;49.796;9.902;2023-06-04T23:36:13;2.57;;;1.80;;
9094;SDS011;4583;49.796;9.902;2023-06-04T23:46:15;2.67;;;2.07;;
9094;SDS011;4583;49.796;9.902;2023-06-04T23:56:17;4.80;;;2.10;;
